Time;durP1;ratioP1;P1;durP2;ratioP2;P2;SDS_P1;SDS_P2;PMS_P1;PMS_P2;Temp;Humidity;BMP_temperature;BMP_pressure;BME280_temperature;BME280_humidity;BME280_pressure;Samples;Min_cycle;Max_cycle;Signal;HPM_P1;HPM_P2
2023/05/28 00:00:45;;;;;;;7.15;4.68;;;;;;;;;;5081409;28;20522;-52
2023/05/28 00:03:11;;;;;;;5.38;4.35;;;;;;;;;;5081249;28;20292;-52
2023/05/28 00:05:39;;;;;;;6.72;4.05;;;;;;;;;;5084538;28;20520;-52
2023/05/28 00:08:05;;;;;;;5.82;4.03;;;;;;;;;;5084822;28;20529;-51
2023/05/28 00:10:32;;;;;;;9.20;4.70;;;;;;;;;;5090444;28;20250;-52
2023/05/28 00:12:59;;;;;;;8.77;5.10;;;;;;;;;;5066937;28;20320;-52
2023/05/28 00:15:27;;;;;;;6.28;4.70;;;;;;;;;;5068841;28;20251;-52
2023/05/28 00:17:54;;;;;;;7.05;4.95;;;;;;;;;;5083141;28;20238;-51
2023/05/28 00:20:20;;;;;;;6.97;4.55;;;;;;;;;;5086739;28;20261;-52
2023/05/28 00:22:47;;;;;;;5.32;4.28;;;;;;;;;;5083825;28;20231;-52
2023/05/28 00:25:14;;;;;;;9.93;4.70;;;;;;;;;;5093263;28;20222;-52
2023/05/28 00:27:40;;;;;;;7.95;5.28;;;;;;;;;;5106234;28;20238;-56
2023/05/28 00:30:07;;;;;;;4.82;4.10;;;;;;;;;;5084657;28;20712;-51
2023/05/28 00:32:35;;;;;;;8.48;5.05;;;;;;;;;;5083250;28;20307;-56
2023/05/28 00:35:02;;;;;;;6.43;4.68;;;;;;;;;;5083260;27;20238;-51
2023/05/28 00:37:29;;;;;;;5.65;5.05;;;;;;;;;;5075222;28;20843;-52
2023/05/28 00:39:55;;;;;;;10.00;5.32;;;;;;;;;;5066891;28;20239;-53
2023/05/28 00:42:22;;;;;;;11.40;5.65;;;;;;;;;;5091464;28;20226;-53
2023/05/28 00:44:49;;;;;;;8.10;5.05;;;;;;;;;;5098112;27;20990;-55
2023/05/28 00:47:16;;;;;;;5.25;4.75;;;;;;;;;;5086971;28;20234;-52
2023/05/28 00:49:44;;;;;;;7.80;5.32;;;;;;;;;;5084901;28;20233;-54
2023/05/28 00:52:11;;;;;;;7.65;4.90;;;;;;;;;;5085698;28;20291;-53
2023/05/28 00:54:38;;;;;;;7.05;5.22;;;;;;;;;;5086171;28;20238;-53
2023/05/28 00:57:05;;;;;;;9.32;4.68;;;;;;;;;;5084941;28;20230;-53
2023/05/28 00:59:33;;;;;;;7.28;4.88;;;;;;;;;;5080977;28;20242;-52
2023/05/28 01:02:01;;;;;;;6.22;4.68;;;;;;;;;;5080140;28;20330;-52
2023/05/28 01:04:28;;;;;;;12.35;6.93;;;;;;;;;;5085319;28;20234;-51
2023/05/28 01:06:57;;;;;;;8.25;4.85;;;;;;;;;;5084429;28;20229;-52
2023/05/28 01:09:24;;;;;;;6.43;4.90;;;;;;;;;;5079387;28;20234;-51
2023/05/28 01:11:53;;;;;;;6.82;4.70;;;;;;;;;;5085097;28;20235;-52
2023/05/28 01:14:20;;;;;;;8.02;4.40;;;;;;;;;;5089410;28;20644;-53
2023/05/28 01:16:48;;;;;;;6.03;4.30;;;;;;;;;;5085485;28;20226;-52
2023/05/28 01:19:18;;;;;;;7.22;5.30;;;;;;;;;;5084755;28;20660;-52
2023/05/28 01:21:46;;;;;;;6.03;4.78;;;;;;;;;;5083434;28;20732;-52
2023/05/28 01:24:14;;;;;;;9.68;5.72;;;;;;;;;;5085679;28;20317;-51
2023/05/28 01:26:42;;;;;;;7.63;4.25;;;;;;;;;;5088433;28;20230;-51
2023/05/28 01:29:14;;;;;;;4.60;4.20;;;;;;;;;;5088154;28;20253;-52
2023/05/28 01:31:41;;;;;;;7.53;5.13;;;;;;;;;;5095799;28;20230;-52
2023/05/28 01:34:07;;;;;;;8.88;5.18;;;;;;;;;;5090483;28;20240;-51
2023/05/28 01:36:37;;;;;;;6.90;4.53;;;;;;;;;;5084740;28;20331;-51
2023/05/28 01:39:04;;;;;;;6.00;4.38;;;;;;;;;;5084976;28;20287;-52
2023/05/28 01:41:32;;;;;;;5.72;4.18;;;;;;;;;;5082221;28;20235;-52
2023/05/28 01:43:59;;;;;;;5.85;5.00;;;;;;;;;;5084119;28;20230;-52
2023/05/28 01:46:26;;;;;;;7.15;4.00;;;;;;;;;;5083792;28;20230;-50
2023/05/28 01:48:53;;;;;;;11.30;4.82;;;;;;;;;;5087536;28;20720;-52
2023/05/28 01:51:22;;;;;;;8.15;4.68;;;;;;;;;;5084402;28;20226;-52
2023/05/28 01:53:48;;;;;;;9.27;4.25;;;;;;;;;;5083732;28;20238;-52
2023/05/28 01:56:15;;;;;;;6.50;4.38;;;;;;;;;;5084115;28;20719;-52
2023/05/28 01:58:43;;;;;;;8.80;4.30;;;;;;;;;;5083047;28;20243;-52
2023/05/28 02:01:14;;;;;;;9.77;5.07;;;;;;;;;;5081044;28;20339;-52
2023/05/28 02:03:41;;;;;;;5.68;4.55;;;;;;;;;;5084431;28;20230;-52
2023/05/28 02:06:08;;;;;;;7.50;4.40;;;;;;;;;;5085616;28;20257;-52
2023/05/28 02:08:34;;;;;;;7.03;4.68;;;;;;;;;;5083878;28;20231;-52
2023/05/28 02:11:01;;;;;;;9.43;5.32;;;;;;;;;;5085386;28;20320;-53
2023/05/28 02:13:28;;;;;;;4.63;4.22;;;;;;;;;;5082193;28;20254;-52
2023/05/28 02:15:56;;;;;;;8.75;5.47;;;;;;;;;;5084979;28;20303;-51
2023/05/28 02:18:23;;;;;;;6.53;5.25;;;;;;;;;;5072167;27;20316;-51
2023/05/28 02:20:49;;;;;;;7.43;4.82;;;;;;;;;;5065108;28;20407;-52
2023/05/28 02:23:16;;;;;;;8.40;5.63;;;;;;;;;;5082884;28;20234;-53
2023/05/28 02:25:43;;;;;;;6.65;4.93;;;;;;;;;;5077094;28;20230;-51
2023/05/28 02:28:10;;;;;;;7.63;5.13;;;;;;;;;;5085045;28;20237;-52
2023/05/28 02:30:37;;;;;;;7.45;5.13;;;;;;;;;;5083654;28;20241;-50
2023/05/28 02:33:05;;;;;;;8.27;4.90;;;;;;;;;;5083488;28;20238;-52
2023/05/28 02:35:32;;;;;;;7.40;4.53;;;;;;;;;;5082072;28;20231;-52
2023/05/28 02:37:59;;;;;;;7.78;4.45;;;;;;;;;;5068695;28;20242;-53
2023/05/28 02:40:25;;;;;;;8.93;4.95;;;;;;;;;;5085002;28;20289;-51
2023/05/28 02:42:52;;;;;;;8.02;4.55;;;;;;;;;;5081342;28;20241;-57
2023/05/28 02:45:25;;;;;;;7.45;4.55;;;;;;;;;;5083593;28;20659;-55
2023/05/28 02:47:52;;;;;;;9.30;5.15;;;;;;;;;;5087860;28;20683;-52
2023/05/28 02:50:19;;;;;;;6.80;5.15;;;;;;;;;;5077122;28;20313;-52
2023/05/28 02:52:46;;;;;;;8.25;5.00;;;;;;;;;;5085919;28;20581;-52
2023/05/28 02:55:12;;;;;;;10.25;5.18;;;;;;;;;;5085029;28;20234;-50
2023/05/28 02:57:39;;;;;;;11.45;5.97;;;;;;;;;;5082168;28;20246;-51
2023/05/28 03:00:09;;;;;;;7.20;5.13;;;;;;;;;;5083273;28;20337;-52
2023/05/28 03:02:35;;;;;;;6.50;4.38;;;;;;;;;;5079372;28;20234;-51
2023/05/28 03:05:02;;;;;;;8.52;5.03;;;;;;;;;;5084380;28;20237;-52
2023/05/28 03:07:30;;;;;;;7.32;5.88;;;;;;;;;;5081729;28;20715;-51
2023/05/28 03:09:57;;;;;;;7.35;5.57;;;;;;;;;;5079527;28;20254;-51
2023/05/28 03:12:24;;;;;;;6.38;5.00;;;;;;;;;;5082329;28;20707;-52
2023/05/28 03:14:51;;;;;;;6.13;4.40;;;;;;;;;;5086992;28;20226;-52
2023/05/28 03:17:17;;;;;;;5.07;4.13;;;;;;;;;;5063931;28;20227;-52
2023/05/28 03:19:44;;;;;;;8.80;6.13;;;;;;;;;;5071304;28;20230;-52
2023/05/28 03:22:10;;;;;;;5.07;4.53;;;;;;;;;;5082808;28;20917;-54
2023/05/28 03:24:39;;;;;;;6.82;5.30;;;;;;;;;;5082976;28;20230;-52
2023/05/28 03:27:06;;;;;;;7.90;4.38;;;;;;;;;;5084347;28;20287;-51
2023/05/28 03:29:33;;;;;;;9.63;6.00;;;;;;;;;;5084547;28;20226;-52
2023/05/28 03:32:00;;;;;;;5.03;4.38;;;;;;;;;;5080940;28;20244;-51
2023/05/28 03:34:26;;;;;;;8.55;4.82;;;;;;;;;;5083476;28;20253;-49
2023/05/28 03:36:53;;;;;;;7.32;4.75;;;;;;;;;;5083750;28;20280;-50
2023/05/28 03:39:19;;;;;;;5.80;4.85;;;;;;;;;;5092600;28;20231;-51
2023/05/28 03:41:48;;;;;;;11.38;5.05;;;;;;;;;;5078556;28;20318;-52
2023/05/28 03:44:16;;;;;;;8.48;5.28;;;;;;;;;;5086084;28;20290;-51
2023/05/28 03:46:42;;;;;;;7.43;5.35;;;;;;;;;;5086571;28;20712;-50
2023/05/28 03:49:09;;;;;;;9.30;5.05;;;;;;;;;;5088008;28;20227;-52
2023/05/28 03:51:37;;;;;;;6.90;4.78;;;;;;;;;;5086298;28;20285;-51
2023/05/28 03:54:04;;;;;;;5.28;4.43;;;;;;;;;;5086679;28;20230;-52
2023/05/28 03:56:33;;;;;;;6.15;4.55;;;;;;;;;;5085684;28;20701;-52
2023/05/28 03:59:01;;;;;;;8.50;4.97;;;;;;;;;;5086534;28;20669;-52
2023/05/28 04:01:28;;;;;;;5.95;4.63;;;;;;;;;;5082003;28;20712;-54
2023/05/28 04:03:55;;;;;;;7.82;4.68;;;;;;;;;;5086732;28;20292;-52
2023/05/28 04:06:22;;;;;;;5.85;4.63;;;;;;;;;;5087625;27;20288;-51
2023/05/28 04:08:49;;;;;;;5.40;4.32;;;;;;;;;;5085291;28;20254;-52
2023/05/28 04:11:16;;;;;;;4.63;4.18;;;;;;;;;;5087172;28;20422;-52
2023/05/28 04:13:42;;;;;;;8.95;5.07;;;;;;;;;;5107694;27;20238;-52
2023/05/28 04:16:10;;;;;;;6.25;5.10;;;;;;;;;;5078581;28;20293;-51
2023/05/28 04:18:37;;;;;;;5.03;4.43;;;;;;;;;;5067478;28;20664;-52
2023/05/28 04:21:04;;;;;;;10.98;5.65;;;;;;;;;;5085503;28;20313;-50
2023/05/28 04:23:30;;;;;;;5.78;3.95;;;;;;;;;;5095393;28;20241;-52
2023/05/28 04:25:57;;;;;;;5.90;4.32;;;;;;;;;;5077986;28;20233;-52
2023/05/28 04:28:27;;;;;;;5.35;4.10;;;;;;;;;;5083757;28;20338;-51
2023/05/28 04:30:54;;;;;;;5.97;4.60;;;;;;;;;;5086092;28;20758;-52
2023/05/28 04:33:22;;;;;;;7.40;4.78;;;;;;;;;;5085599;28;20230;-52
2023/05/28 04:35:50;;;;;;;9.55;4.60;;;;;;;;;;5086885;28;20724;-53
2023/05/28 04:38:17;;;;;;;13.50;5.70;;;;;;;;;;5086289;28;20235;-52
2023/05/28 04:40:43;;;;;;;10.10;4.50;;;;;;;;;;5084727;28;20231;-51
2023/05/28 04:43:10;;;;;;;7.32;5.07;;;;;;;;;;5089165;28;20727;-50
2023/05/28 04:45:37;;;;;;;8.48;4.55;;;;;;;;;;5079104;28;20226;-53
2023/05/28 04:48:04;;;;;;;7.88;4.60;;;;;;;;;;5086701;28;20227;-52
2023/05/28 04:50:32;;;;;;;7.38;4.57;;;;;;;;;;5085505;28;21106;-52
2023/05/28 04:52:58;;;;;;;6.20;4.40;;;;;;;;;;5082101;28;20735;-53
2023/05/28 04:55:25;;;;;;;7.40;4.25;;;;;;;;;;5085425;28;20265;-53
2023/05/28 04:57:52;;;;;;;5.65;4.60;;;;;;;;;;5083676;27;20749;-52
2023/05/28 05:00:19;;;;;;;5.03;3.90;;;;;;;;;;5083883;28;20497;-53
2023/05/28 05:02:45;;;;;;;5.38;4.60;;;;;;;;;;5080729;28;20654;-52
2023/05/28 05:05:12;;;;;;;4.78;3.90;;;;;;;;;;5086565;28;20234;-53
2023/05/28 05:07:40;;;;;;;8.55;5.07;;;;;;;;;;5085837;28;20243;-53
2023/05/28 05:10:08;;;;;;;7.40;3.85;;;;;;;;;;5069321;28;20681;-52
2023/05/28 05:12:35;;;;;;;8.98;4.30;;;;;;;;;;5074691;28;20265;-52
2023/05/28 05:15:02;;;;;;;7.53;3.65;;;;;;;;;;5097991;28;20330;-51
2023/05/28 05:17:28;;;;;;;4.40;4.00;;;;;;;;;;5105951;28;20257;-54
2023/05/28 05:19:55;;;;;;;5.60;4.22;;;;;;;;;;5081109;28;20273;-53
2023/05/28 05:22:21;;;;;;;6.20;4.60;;;;;;;;;;5082366;28;20281;-52
2023/05/28 05:24:49;;;;;;;6.13;4.45;;;;;;;;;;5070099;28;20227;-51
2023/05/28 05:27:16;;;;;;;5.22;4.75;;;;;;;;;;5075582;28;20227;-52
2023/05/28 05:29:43;;;;;;;7.03;3.90;;;;;;;;;;5085292;28;20235;-51
2023/05/28 05:32:10;;;;;;;8.50;3.97;;;;;;;;;;5085764;28;20248;-51
2023/05/28 05:34:37;;;;;;;10.60;4.45;;;;;;;;;;5083189;28;20227;-52
2023/05/28 05:37:03;;;;;;;4.63;4.13;;;;;;;;;;5081772;28;20671;-53
2023/05/28 05:39:30;;;;;;;6.57;4.88;;;;;;;;;;5080513;28;20237;-52
2023/05/28 05:41:59;;;;;;;5.53;3.85;;;;;;;;;;5079701;28;20739;-54
2023/05/28 05:44:25;;;;;;;7.45;4.72;;;;;;;;;;5084456;28;20235;-50
2023/05/28 05:46:52;;;;;;;5.60;3.85;;;;;;;;;;5087894;28;20709;-52
2023/05/28 05:49:19;;;;;;;6.13;3.92;;;;;;;;;;5083460;28;20226;-52
2023/05/28 05:51:45;;;;;;;8.50;4.20;;;;;;;;;;5082225;28;20234;-51
2023/05/28 05:54:12;;;;;;;9.75;4.22;;;;;;;;;;5076631;28;20234;-52
2023/05/28 05:56:39;;;;;;;8.90;4.28;;;;;;;;;;5085074;28;20236;-51
2023/05/28 05:59:07;;;;;;;5.40;3.88;;;;;;;;;;5082820;28;20231;-52
2023/05/28 06:01:33;;;;;;;6.90;4.22;;;;;;;;;;5078672;28;20295;-52
2023/05/28 06:04:00;;;;;;;8.20;4.30;;;;;;;;;;5083327;28;20227;-52
2023/05/28 06:06:27;;;;;;;5.68;4.22;;;;;;;;;;5085239;28;20230;-52
2023/05/28 06:08:54;;;;;;;5.00;4.00;;;;;;;;;;5083510;28;20257;-51
2023/05/28 06:11:21;;;;;;;4.88;3.83;;;;;;;;;;5085555;28;20222;-52
2023/05/28 06:13:48;;;;;;;6.93;3.65;;;;;;;;;;5087036;28;20235;-52
2023/05/28 06:16:16;;;;;;;6.32;4.13;;;;;;;;;;5089080;28;20234;-51
2023/05/28 06:18:43;;;;;;;5.15;3.60;;;;;;;;;;5102490;28;20287;-52
2023/05/28 06:21:10;;;;;;;4.82;3.53;;;;;;;;;;5081565;28;20269;-52
2023/05/28 06:23:36;;;;;;;5.15;3.58;;;;;;;;;;5081286;28;20725;-53
2023/05/28 06:26:04;;;;;;;3.75;3.35;;;;;;;;;;5081930;28;20230;-53
2023/05/28 06:28:31;;;;;;;4.18;3.28;;;;;;;;;;5083650;28;20416;-53
2023/05/28 06:30:58;;;;;;;4.65;3.30;;;;;;;;;;5075976;28;20244;-51
2023/05/28 06:33:26;;;;;;;3.33;2.85;;;;;;;;;;5075279;28;20228;-52
2023/05/28 06:35:53;;;;;;;4.38;3.25;;;;;;;;;;5076984;28;20311;-52
2023/05/28 06:38:19;;;;;;;3.63;3.15;;;;;;;;;;5080122;28;20231;-51
2023/05/28 06:40:46;;;;;;;6.85;3.45;;;;;;;;;;5075623;28;20318;-52
2023/05/28 06:43:12;;;;;;;6.88;3.92;;;;;;;;;;5078866;28;20238;-51
2023/05/28 06:45:39;;;;;;;4.82;3.78;;;;;;;;;;5079442;28;20773;-51
2023/05/28 06:48:08;;;;;;;3.28;2.97;;;;;;;;;;5076349;28;20245;-53
2023/05/28 06:50:35;;;;;;;4.68;2.72;;;;;;;;;;5079418;28;20225;-50
2023/05/28 06:53:02;;;;;;;5.05;3.00;;;;;;;;;;5077339;28;20630;-52
2023/05/28 06:55:29;;;;;;;6.90;3.33;;;;;;;;;;5078923;28;20257;-51
2023/05/28 06:57:56;;;;;;;4.50;3.40;;;;;;;;;;5079517;28;20783;-52
2023/05/28 07:00:22;;;;;;;3.20;2.78;;;;;;;;;;5081588;28;20238;-52
2023/05/28 07:02:49;;;;;;;2.80;2.60;;;;;;;;;;5082448;28;20610;-52
2023/05/28 07:05:16;;;;;;;4.30;3.03;;;;;;;;;;5079962;28;20262;-51
2023/05/28 07:07:44;;;;;;;4.57;2.88;;;;;;;;;;5081587;28;20234;-53
2023/05/28 07:10:11;;;;;;;3.38;2.80;;;;;;;;;;5083328;28;20715;-53
2023/05/28 07:12:37;;;;;;;4.38;2.70;;;;;;;;;;5083017;28;20249;-53
2023/05/28 07:15:06;;;;;;;3.78;2.75;;;;;;;;;;5082237;28;20248;-52
2023/05/28 07:17:32;;;;;;;4.75;3.20;;;;;;;;;;5083190;28;20291;-52
2023/05/28 07:19:59;;;;;;;4.00;2.70;;;;;;;;;;5077857;28;20227;-51
2023/05/28 07:22:26;;;;;;;3.40;3.10;;;;;;;;;;5080532;28;20230;-52
2023/05/28 07:24:54;;;;;;;2.92;2.50;;;;;;;;;;5086058;28;20222;-52
2023/05/28 07:27:21;;;;;;;2.58;2.17;;;;;;;;;;5083172;28;20586;-52
2023/05/28 07:29:47;;;;;;;5.45;2.78;;;;;;;;;;5085667;28;20283;-53
2023/05/28 07:32:14;;;;;;;6.63;3.05;;;;;;;;;;5082702;28;20249;-51
2023/05/28 07:34:41;;;;;;;3.03;2.65;;;;;;;;;;5086190;28;20230;-52
2023/05/28 07:37:08;;;;;;;3.00;2.13;;;;;;;;;;5082639;28;20226;-53
2023/05/28 07:39:35;;;;;;;3.60;2.03;;;;;;;;;;5083661;28;20264;-51
2023/05/28 07:42:04;;;;;;;4.43;2.47;;;;;;;;;;5081443;28;20241;-51
2023/05/28 07:44:31;;;;;;;4.07;2.53;;;;;;;;;;5085072;28;20241;-51
2023/05/28 07:46:57;;;;;;;5.90;2.65;;;;;;;;;;5083336;28;20314;-51
2023/05/28 07:49:24;;;;;;;7.35;2.65;;;;;;;;;;5085207;28;20360;-55
2023/05/28 07:51:51;;;;;;;5.75;2.42;;;;;;;;;;5081800;28;20325;-53
2023/05/28 07:54:17;;;;;;;4.90;2.78;;;;;;;;;;5084767;28;20250;-53
2023/05/28 07:56:44;;;;;;;4.28;2.53;;;;;;;;;;5084939;28;20231;-50
2023/05/28 07:59:12;;;;;;;2.90;1.92;;;;;;;;;;5083614;28;20250;-53
2023/05/28 08:01:40;;;;;;;8.40;2.45;;;;;;;;;;5084807;28;20736;-53
2023/05/28 08:04:06;;;;;;;4.40;2.72;;;;;;;;;;5088403;28;20223;-52
2023/05/28 08:06:33;;;;;;;3.20;2.00;;;;;;;;;;5090820;28;20238;-53
2023/05/28 08:09:00;;;;;;;3.05;2.08;;;;;;;;;;5089716;28;20250;-52
2023/05/28 08:11:30;;;;;;;8.48;3.20;;;;;;;;;;5091307;28;20226;-52
2023/05/28 08:13:57;;;;;;;6.35;2.10;;;;;;;;;;5088461;28;20256;-51
2023/05/28 08:16:26;;;;;;;4.50;2.47;;;;;;;;;;5080504;28;20231;-52
2023/05/28 08:18:52;;;;;;;5.72;2.70;;;;;;;;;;5084246;28;20254;-52
2023/05/28 08:21:19;;;;;;;5.78;2.80;;;;;;;;;;5084011;28;20230;-53
2023/05/28 08:23:45;;;;;;;3.38;2.08;;;;;;;;;;5074889;28;20266;-52
2023/05/28 08:26:12;;;;;;;4.53;2.65;;;;;;;;;;5067495;28;20243;-52
2023/05/28 08:28:39;;;;;;;3.55;2.20;;;;;;;;;;5074905;28;20226;-51
2023/05/28 08:31:05;;;;;;;3.75;2.83;;;;;;;;;;5084656;28;20223;-52
2023/05/28 08:33:33;;;;;;;3.38;2.15;;;;;;;;;;5091505;28;20247;-51
2023/05/28 08:36:01;;;;;;;2.38;2.15;;;;;;;;;;5086345;28;20230;-51
2023/05/28 08:38:28;;;;;;;4.85;2.53;;;;;;;;;;5086662;28;20638;-52
2023/05/28 08:40:55;;;;;;;3.00;2.28;;;;;;;;;;5084618;28;20230;-51
2023/05/28 08:43:22;;;;;;;3.63;2.03;;;;;;;;;;5074342;28;20226;-51
2023/05/28 08:45:51;;;;;;;3.05;1.92;;;;;;;;;;5077561;28;20234;-52
2023/05/28 08:48:18;;;;;;;2.10;1.88;;;;;;;;;;5090215;27;20700;-52
2023/05/28 08:50:47;;;;;;;2.50;2.00;;;;;;;;;;5085790;28;20236;-54
2023/05/28 08:53:15;;;;;;;4.35;2.35;;;;;;;;;;5066398;28;20348;-53
2023/05/28 08:55:42;;;;;;;4.68;2.17;;;;;;;;;;5078538;28;20708;-53
2023/05/28 08:58:08;;;;;;;5.53;2.92;;;;;;;;;;5084780;27;20230;-54
2023/05/28 09:00:35;;;;;;;3.63;2.25;;;;;;;;;;5085719;28;20322;-52
2023/05/28 09:03:07;;;;;;;2.80;2.15;;;;;;;;;;5070843;28;20353;-52
2023/05/28 09:05:34;;;;;;;2.88;2.17;;;;;;;;;;5079210;28;20237;-52
2023/05/28 09:08:02;;;;;;;3.83;2.50;;;;;;;;;;5081312;28;20250;-52
2023/05/28 09:10:28;;;;;;;2.72;2.10;;;;;;;;;;5080100;28;20292;-51
2023/05/28 09:12:59;;;;;;;2.33;2.10;;;;;;;;;;5076965;28;20235;-53
2023/05/28 09:15:25;;;;;;;6.05;2.50;;;;;;;;;;5079351;28;20887;-52
2023/05/28 09:17:52;;;;;;;5.40;2.60;;;;;;;;;;5081328;28;20226;-52
2023/05/28 09:20:19;;;;;;;4.38;2.33;;;;;;;;;;5080841;28;20240;-51
2023/05/28 09:22:46;;;;;;;2.88;2.20;;;;;;;;;;5080103;28;20288;-52
2023/05/28 09:25:14;;;;;;;2.33;2.13;;;;;;;;;;5081021;28;20314;-50
2023/05/28 09:27:44;;;;;;;4.68;2.42;;;;;;;;;;5080101;28;20262;-53
2023/05/28 09:30:11;;;;;;;4.80;2.08;;;;;;;;;;5082338;28;20747;-51
2023/05/28 09:32:38;;;;;;;2.90;1.77;;;;;;;;;;5078637;28;20614;-51
2023/05/28 09:35:05;;;;;;;5.18;2.70;;;;;;;;;;5079789;28;20237;-54
2023/05/28 09:37:32;;;;;;;3.00;2.40;;;;;;;;;;5080900;28;20650;-54
2023/05/28 09:40:03;;;;;;;5.00;2.30;;;;;;;;;;5081072;28;20253;-52
2023/05/28 09:42:38;;;;;;;2.63;2.22;;;;;;;;;;5078135;28;20241;-52
2023/05/28 09:45:05;;;;;;;3.08;1.88;;;;;;;;;;5079232;28;20271;-55
2023/05/28 09:47:32;;;;;;;4.30;2.22;;;;;;;;;;5081394;28;20237;-51
2023/05/28 09:49:59;;;;;;;5.82;2.40;;;;;;;;;;5079812;28;20730;-51
2023/05/28 09:52:27;;;;;;;3.10;2.80;;;;;;;;;;5079395;28;21005;-53
2023/05/28 09:54:55;;;;;;;2.25;1.77;;;;;;;;;;5081392;28;20230;-52
2023/05/28 09:57:24;;;;;;;3.42;2.35;;;;;;;;;;5086313;28;20247;-51
2023/05/28 09:59:55;;;;;;;2.72;2.22;;;;;;;;;;5074340;28;20241;-53
2023/05/28 10:02:25;;;;;;;2.50;2.20;;;;;;;;;;5083372;28;20242;-52
2023/05/28 10:04:54;;;;;;;3.60;2.00;;;;;;;;;;5084658;28;20254;-53
2023/05/28 10:07:21;;;;;;;5.45;2.60;;;;;;;;;;5078586;28;20234;-52
2023/05/28 10:09:48;;;;;;;3.25;2.05;;;;;;;;;;5080612;28;20222;-51
2023/05/28 10:12:18;;;;;;;3.35;2.20;;;;;;;;;;5078609;28;20242;-51
2023/05/28 10:14:45;;;;;;;6.32;2.50;;;;;;;;;;5080681;28;20309;-54
2023/05/28 10:17:14;;;;;;;2.67;2.20;;;;;;;;;;5078296;28;20227;-52
2023/05/28 10:19:41;;;;;;;2.83;2.20;;;;;;;;;;5078881;28;20319;-52
2023/05/28 10:22:08;;;;;;;4.57;2.67;;;;;;;;;;5078766;28;20236;-54
2023/05/28 10:24:35;;;;;;;4.13;2.72;;;;;;;;;;5078787;28;20246;-53
2023/05/28 10:27:05;;;;;;;3.08;1.90;;;;;;;;;;5079259;28;20780;-52
2023/05/28 10:29:38;;;;;;;2.92;2.13;;;;;;;;;;5074234;28;20689;-51
2023/05/28 10:32:06;;;;;;;3.60;2.45;;;;;;;;;;5079243;28;20248;-51
2023/05/28 10:34:34;;;;;;;3.50;2.60;;;;;;;;;;5080431;28;20241;-52
2023/05/28 10:37:01;;;;;;;1.70;1.60;;;;;;;;;;5080210;28;20254;-53
2023/05/28 10:39:28;;;;;;;3.58;2.05;;;;;;;;;;5080055;28;20272;-52
2023/05/28 10:41:57;;;;;;;2.50;2.00;;;;;;;;;;5076415;28;20237;-52
2023/05/28 10:44:25;;;;;;;2.75;2.42;;;;;;;;;;5079416;28;20230;-53
2023/05/28 10:46:56;;;;;;;2.13;1.92;;;;;;;;;;5082868;28;20262;-52
2023/05/28 10:49:23;;;;;;;2.60;2.25;;;;;;;;;;5080851;28;20231;-52
2023/05/28 10:52:00;;;;;;;4.45;1.90;;;;;;;;;;5080530;28;20317;-53
2023/05/28 10:54:41;;;;;;;4.55;2.35;;;;;;;;;;5081084;28;20226;-52
2023/05/28 10:57:11;;;;;;;3.40;2.45;;;;;;;;;;5084712;28;20420;-54
2023/05/28 10:59:39;;;;;;;3.45;2.20;;;;;;;;;;5082525;28;20226;-51
2023/05/28 11:02:07;;;;;;;3.03;2.20;;;;;;;;;;5080063;28;20260;-53
2023/05/28 11:04:34;;;;;;;2.78;2.28;;;;;;;;;;5079358;28;20227;-52
2023/05/28 11:07:02;;;;;;;4.00;2.45;;;;;;;;;;5080942;28;20226;-51
2023/05/28 11:09:28;;;;;;;4.03;2.08;;;;;;;;;;5082125;28;20287;-52
2023/05/28 11:11:58;;;;;;;3.20;2.15;;;;;;;;;;5079314;28;20258;-53
2023/05/28 11:14:25;;;;;;;4.22;2.60;;;;;;;;;;5074956;28;20230;-52
2023/05/28 11:16:52;;;;;;;4.38;2.50;;;;;;;;;;5079088;28;20237;-51
2023/05/28 11:19:18;;;;;;;2.97;2.10;;;;;;;;;;5080597;28;20258;-53
2023/05/28 11:21:55;;;;;;;4.72;2.67;;;;;;;;;;5078053;28;20733;-53
2023/05/28 11:24:23;;;;;;;3.63;2.00;;;;;;;;;;5079552;28;20223;-51
2023/05/28 11:26:52;;;;;;;4.03;2.25;;;;;;;;;;5079765;28;20242;-54
2023/05/28 11:29:19;;;;;;;4.20;2.08;;;;;;;;;;5080186;28;20317;-52
2023/05/28 11:31:46;;;;;;;3.33;2.00;;;;;;;;;;5079450;28;20333;-52
2023/05/28 11:34:12;;;;;;;3.22;2.40;;;;;;;;;;5077368;28;20701;-51
2023/05/28 11:36:40;;;;;;;3.45;2.33;;;;;;;;;;5080146;28;20237;-52
2023/05/28 11:39:07;;;;;;;2.35;1.95;;;;;;;;;;5076400;28;20234;-51
2023/05/28 11:41:35;;;;;;;3.05;2.55;;;;;;;;;;5080891;28;20669;-51
2023/05/28 11:44:02;;;;;;;3.35;2.38;;;;;;;;;;5079617;28;20238;-52
2023/05/28 11:46:29;;;;;;;4.40;3.03;;;;;;;;;;5080429;28;20227;-53
2023/05/28 11:48:56;;;;;;;2.42;1.98;;;;;;;;;;5078360;28;20799;-52
2023/05/28 11:51:23;;;;;;;4.43;2.40;;;;;;;;;;5078039;28;20356;-53
2023/05/28 11:53:50;;;;;;;3.40;2.38;;;;;;;;;;5081056;28;20245;-52
2023/05/28 11:56:16;;;;;;;2.60;2.00;;;;;;;;;;5077840;28;20314;-56
2023/05/28 11:58:48;;;;;;;2.67;2.20;;;;;;;;;;5081615;28;20231;-51
2023/05/28 12:01:15;;;;;;;3.47;2.15;;;;;;;;;;5080444;28;20239;-51
2023/05/28 12:03:42;;;;;;;2.58;2.13;;;;;;;;;;5081495;28;20323;-53
2023/05/28 12:06:09;;;;;;;2.75;2.30;;;;;;;;;;5085171;27;20326;-52
2023/05/28 12:08:38;;;;;;;3.25;2.03;;;;;;;;;;5082116;28;20746;-52
2023/05/28 12:11:05;;;;;;;2.08;1.83;;;;;;;;;;5083983;28;20330;-52
2023/05/28 12:13:33;;;;;;;2.65;2.40;;;;;;;;;;5079808;28;20234;-51
2023/05/28 12:16:10;;;;;;;2.78;2.00;;;;;;;;;;5082173;28;20284;-51
2023/05/28 12:18:41;;;;;;;3.80;1.88;;;;;;;;;;5080289;28;20239;-51
2023/05/28 12:21:10;;;;;;;2.17;1.70;;;;;;;;;;5082420;28;20234;-52
2023/05/28 12:23:37;;;;;;;3.35;2.05;;;;;;;;;;5079898;28;20234;-52
2023/05/28 12:26:05;;;;;;;2.63;2.10;;;;;;;;;;5082522;28;20241;-52
2023/05/28 12:28:34;;;;;;;2.85;2.03;;;;;;;;;;5079841;28;20891;-53
2023/05/28 12:31:02;;;;;;;2.60;2.03;;;;;;;;;;5083361;28;20609;-51
2023/05/28 12:33:30;;;;;;;2.58;2.25;;;;;;;;;;5083953;28;20414;-52
2023/05/28 12:35:59;;;;;;;2.33;2.13;;;;;;;;;;5085253;28;20238;-52
2023/05/28 12:38:26;;;;;;;4.97;2.08;;;;;;;;;;5084677;28;20317;-52
2023/05/28 12:40:53;;;;;;;3.60;2.10;;;;;;;;;;5084007;28;20234;-51
2023/05/28 12:43:20;;;;;;;5.30;2.20;;;;;;;;;;5081388;28;20260;-52
2023/05/28 12:45:46;;;;;;;3.08;2.17;;;;;;;;;;5085295;28;20237;-56
2023/05/28 12:48:13;;;;;;;4.05;2.30;;;;;;;;;;5084675;28;20257;-51
2023/05/28 12:50:41;;;;;;;3.47;2.22;;;;;;;;;;5085704;28;20671;-53
2023/05/28 12:53:07;;;;;;;2.15;1.95;;;;;;;;;;5084488;28;20642;-53
2023/05/28 12:55:34;;;;;;;2.35;2.15;;;;;;;;;;5084577;28;20234;-51
2023/05/28 12:58:00;;;;;;;1.77;1.67;;;;;;;;;;5087153;28;20230;-52
2023/05/28 13:00:27;;;;;;;2.28;2.08;;;;;;;;;;5080079;28;20227;-52
2023/05/28 13:02:54;;;;;;;3.78;2.20;;;;;;;;;;5080652;28;20832;-51
2023/05/28 13:05:21;;;;;;;2.60;2.40;;;;;;;;;;5083626;28;20254;-51
2023/05/28 13:07:49;;;;;;;2.97;2.50;;;;;;;;;;5084683;27;20230;-56
2023/05/28 13:10:15;;;;;;;3.05;2.42;;;;;;;;;;5083139;28;20233;-52
2023/05/28 13:12:42;;;;;;;3.95;2.60;;;;;;;;;;5083224;28;20237;-51
2023/05/28 13:15:09;;;;;;;2.47;1.98;;;;;;;;;;5082075;28;20230;-51
2023/05/28 13:17:35;;;;;;;2.45;2.25;;;;;;;;;;5082020;28;20231;-53
2023/05/28 13:20:04;;;;;;;2.47;2.28;;;;;;;;;;5080512;28;20237;-51
2023/05/28 13:22:35;;;;;;;6.38;2.80;;;;;;;;;;5083842;28;20722;-51
2023/05/28 13:25:03;;;;;;;4.05;2.63;;;;;;;;;;5084426;28;20226;-52
2023/05/28 13:27:30;;;;;;;2.70;2.35;;;;;;;;;;5079729;28;20230;-52
2023/05/28 13:29:57;;;;;;;4.07;2.50;;;;;;;;;;5079347;28;20631;-52
2023/05/28 13:32:23;;;;;;;4.32;2.22;;;;;;;;;;5059875;28;20237;-53
2023/05/28 13:34:50;;;;;;;2.70;2.22;;;;;;;;;;5079914;28;20231;-52
2023/05/28 13:37:17;;;;;;;5.63;2.30;;;;;;;;;;5082539;28;20238;-52
2023/05/28 13:39:44;;;;;;;2.75;2.28;;;;;;;;;;5080354;28;20231;-53
2023/05/28 13:42:13;;;;;;;2.65;2.45;;;;;;;;;;5079303;28;20238;-52
2023/05/28 13:44:39;;;;;;;2.38;2.17;;;;;;;;;;5081357;28;20238;-52
2023/05/28 13:47:06;;;;;;;4.32;2.50;;;;;;;;;;5081354;28;20677;-50
2023/05/28 13:49:33;;;;;;;3.60;2.40;;;;;;;;;;5082548;28;20883;-52
2023/05/28 13:51:59;;;;;;;4.03;2.75;;;;;;;;;;5076985;28;20245;-52
2023/05/28 13:54:26;;;;;;;3.65;2.13;;;;;;;;;;5077564;28;20239;-52
2023/05/28 13:56:53;;;;;;;2.58;2.33;;;;;;;;;;5081295;28;20253;-53
2023/05/28 13:59:21;;;;;;;3.40;2.40;;;;;;;;;;5080529;28;20237;-52
2023/05/28 14:01:47;;;;;;;3.88;2.30;;;;;;;;;;5078196;28;20307;-60
2023/05/28 14:04:14;;;;;;;3.53;2.20;;;;;;;;;;5079720;28;20618;-51
2023/05/28 14:06:40;;;;;;;3.10;2.40;;;;;;;;;;5081603;28;20226;-53
2023/05/28 14:09:08;;;;;;;5.93;2.17;;;;;;;;;;5077606;28;20218;-53
2023/05/28 14:11:35;;;;;;;4.90;2.15;;;;;;;;;;5080987;28;20252;-52
2023/05/28 14:14:01;;;;;;;2.30;2.10;;;;;;;;;;5083225;28;20727;-54
2023/05/28 14:16:29;;;;;;;3.00;1.83;;;;;;;;;;5079261;28;20237;-52
2023/05/28 14:18:56;;;;;;;3.47;2.28;;;;;;;;;;5078986;28;20234;-52
2023/05/28 14:21:22;;;;;;;3.55;2.38;;;;;;;;;;5081734;27;20227;-53
2023/05/28 14:23:49;;;;;;;4.60;2.22;;;;;;;;;;5081260;28;20254;-52
2023/05/28 14:26:16;;;;;;;3.10;2.60;;;;;;;;;;5078605;28;20235;-52
2023/05/28 14:28:42;;;;;;;4.00;2.22;;;;;;;;;;5077657;28;20262;-53
2023/05/28 14:31:09;;;;;;;6.07;2.38;;;;;;;;;;5078935;28;20250;-51
2023/05/28 14:33:37;;;;;;;3.63;2.25;;;;;;;;;;5081114;28;20341;-53
2023/05/28 14:36:04;;;;;;;3.70;2.38;;;;;;;;;;5078090;28;20711;-51
2023/05/28 14:38:31;;;;;;;7.72;2.30;;;;;;;;;;5080290;28;20310;-52
2023/05/28 14:40:57;;;;;;;4.10;2.40;;;;;;;;;;5070989;28;20231;-51
2023/05/28 14:43:24;;;;;;;3.45;2.17;;;;;;;;;;5077139;28;20716;-52